Key West International Airport

KEYW · Florida, United States

METAR history KEYW · Key West International Airport

Below you see METARs of the last few days. Select a year to browse through older METARs, from the year 2007 onwards.

April 21, 2024

Time Code Weather Temp. Visibility Ceiling Wind METAR/SPECI
04:53
V
26 °C 10 mi - 130° 130° 10 kt METAR KEYW 210853Z AUTO 13010KT 10SM CLR 26/21 A2997 RMK AO2 SLP154 T02560206 56017 $
03:53
V
26 °C 10 mi - 140° 140° 9 kt METAR KEYW 210753Z AUTO 14009KT 10SM CLR 26/21 A2999 RMK AO2 SLP159 T02560206 $
02:53
V
26 °C 10 mi - 140° 140° 9 kt METAR KEYW 210653Z AUTO 14009KT 10SM FEW023 26/21 A3000 RMK AO2 SLP163 T02560206 $
01:53
V
26 °C 10 mi - 140° 140° 9 kt METAR KEYW 210553Z AUTO 14009KT 10SM FEW023 26/21 A3002 RMK AO2 SLP171 T02560211 10261 20256 58008 $
00:53
V
26 °C 10 mi - 130° 130° 11 kt METAR KEYW 210453Z AUTO 13011KT 10SM CLR 26/21 A3003 RMK AO2 SLP175 T02560206 402890239 $

April 20, 2024

Time Code Weather Temp. Visibility Ceiling Wind METAR/SPECI
23:53
V
26 °C 10 mi - 110° 110° 10 kt METAR KEYW 210353Z AUTO 11010KT 10SM CLR 26/21 A3004 RMK AO2 SLP177 T02560211 $
22:53
V
26 °C 10 mi - 110° 110° 11 kt METAR KEYW 210253Z AUTO 11011KT 10SM CLR 26/21 A3004 RMK AO2 SLP179 T02560211 51009 $
21:53
V
26 °C 10 mi - 090° 090° 7 kt METAR KEYW 210153Z AUTO 09007KT 10SM CLR 26/21 A3004 RMK AO2 SLP177 T02560211 $
20:53
V
26 °C 10 mi - 080° 080° 7 kt METAR KEYW 210053Z AUTO 08007KT 10SM CLR 26/21 A3003 RMK AO2 SLP173 T02560206 $
19:53
V
26 °C 10 mi - 090° 090° 5 kt METAR KEYW 202353Z 09005KT 10SM CLR 26/21 A3002 RMK AO2 SLP170 T02610206 10289 20261 53001 $
18:53
V
27 °C 10 mi - 100° 100° 7 kt METAR KEYW 202253Z 10007KT 10SM CLR 27/21 A3001 RMK AO2 SLP169 T02670206 $
17:53
V
28 °C 10 mi - 110° 110° 10 kt METAR KEYW 202153Z 11010KT 10SM CLR 28/21 A3001 RMK AO2 SLP168 T02780206 $
16:53
V
28 °C 10 mi - 110° 110° 9 kt METAR KEYW 202053Z 11009KT 10SM CLR 28/21 A3002 RMK AO2 SLP170 T02780211 56019 $
15:53
V
28 °C 10 mi - 110° 110° 7 kt METAR KEYW 201953Z 11007KT 10SM CLR 28/21 A3003 RMK AO2 SLP176 T02830206 $
14:53
V
28 °C 10 mi - 100° 100° 9 kt METAR KEYW 201853Z 10009KT 10SM CLR 28/21 A3005 RMK AO2 SLP181 T02830211 $
13:53
V
28 °C 10 mi - 100° 100° 9 kt METAR KEYW 201753Z 10009KT 10SM CLR 28/21 A3007 RMK AO2 SLP188 T02830211 10283 20250 58011 $
12:53
V
28 °C 10 mi - 120° 120° 9 kt METAR KEYW 201653Z 12009KT 10SM CLR 28/21 A3009 RMK AO2 SLP194 T02780211 $
11:53
V
27 °C 10 mi - 120° 120° 9 kt METAR KEYW 201553Z 12009KT 10SM CLR 27/21 A3010 RMK AO2 SLP198 T02720206 $
10:53
V
27 °C 10 mi - 130° 130° 9 kt METAR KEYW 201453Z 13009KT 10SM CLR 27/21 A3010 RMK AO2 SLP199 T02720206 53009 $
09:53
V
27 °C 10 mi - 120° 120° 10 kt METAR KEYW 201353Z 12010KT 10SM CLR 27/21 A3008 RMK AO2 SLP193 T02670206 $
08:53
V
26 °C 10 mi - 110° 110° 11 kt METAR KEYW 201253Z 11011KT 10SM CLR 26/21 A3008 RMK AO2 SLP191 T02610206 $
07:53
V
25 °C 10 mi - 120° 120° 8 kt METAR KEYW 201153Z 12008KT 10SM FEW022 25/21 A3008 RMK AO2 SLP191 T02500206 10256 20239 53012 $
06:53
V
24 °C 10 mi - 100° 100° 9 kt METAR KEYW 201053Z 10009KT 10SM FEW021 SCT026 24/21 A3006 RMK AO2 SLP185 T02440211 $
05:53
V
24 °C 10 mi - 080° 080° 5 kt METAR KEYW 200953Z AUTO 08005KT 10SM FEW022 24/21 A3005 RMK AO2 SLP181 T02440211 $
05:13
V
24 °C 10 mi - 090° 090° 5 kt METAR KEYW 200913Z AUTO 09005KT 10SM SCT022 24/21 A3004 RMK AO2 T02440206 $
04:53
M
24 °C 10 mi 2,200 ft 100° 100° 7 kt METAR KEYW 200853Z AUTO 10007KT 10SM BKN022 24/21 A3004 RMK AO2 SLP178 T02440206 55004 $
04:37
M
24 °C 10 mi 2,100 ft 090° 090° 4 kt METAR KEYW 200837Z AUTO 09004KT 10SM BKN021 24/21 A3004 RMK AO2 T02440206 $
03:53
V
24 °C 10 mi - 100° 100° 5 kt METAR KEYW 200753Z AUTO 10005KT 10SM CLR 24/21 A3004 RMK AO2 SLP177 T02440206 $
02:53
V
26 °C 10 mi - 090° 090° 8 kt METAR KEYW 200653Z AUTO 09008KT 10SM FEW019 26/21 A3005 RMK AO2 SLP180 T02560206 $
01:53
V
25 °C 10 mi - 100° 100° 9 kt METAR KEYW 200553Z AUTO 10009KT 10SM FEW019 25/21 A3005 RMK AO2 SLP182 T02500206 10256 20244 58008 $
00:53
V
24 °C 10 mi - 080° 080° 6 kt METAR KEYW 200453Z AUTO 08006KT 10SM CLR 24/21 A3007 RMK AO2 SLP187 T02440206 402890239 $

April 19, 2024

Time Code Weather Temp. Visibility Ceiling Wind METAR/SPECI
23:53
V
25 °C 10 mi - 080° 080° 8 kt METAR KEYW 200353Z AUTO 08008KT 10SM CLR 25/21 A3008 RMK AO2 SLP191 T02500206 $
22:53
V
25 °C 10 mi - 090° 090° 8 kt METAR KEYW 200253Z AUTO 09008KT 10SM CLR 25/21 A3008 RMK AO2 SLP190 T02500206 52012 $
21:53
V
25 °C 10 mi - 090° 090° 7 kt METAR KEYW 200153Z AUTO 09007KT 10SM CLR 25/21 A3006 RMK AO2 SLP186 T02500206 $
20:53
V
26 °C 10 mi - 110° 110° 9 kt METAR KEYW 200053Z 11009KT 10SM CLR 26/21 A3006 RMK AO2 SLP183 T02560206 $
19:53
V
26 °C 10 mi - 100° 100° 8 kt METAR KEYW 192353Z 10008KT 10SM CLR 26/21 A3004 RMK AO2 SLP179 T02560206 10289 20256 53009 $
18:53
V
27 °C 10 mi - 110° 110° 8 kt METAR KEYW 192253Z 11008KT 10SM CLR 27/21 A3003 RMK AO2 SLP174 T02670211 $
17:53
V
27 °C 10 mi - 100° 100° 8 kt METAR KEYW 192153Z 10008KT 10SM CLR 27/21 A3002 RMK AO2 SLP172 T02720206 $
16:53
V
28 °C 10 mi - 120° 120° 9 kt METAR KEYW 192053Z 12009KT 10SM CLR 28/21 A3002 RMK AO2 SLP170 T02780211 56014 $
15:53
V
28 °C 10 mi - 110° 110° 8 kt METAR KEYW 191953Z AUTO 11008KT 10SM CLR 28/22 A3003 RMK AO2 SLP174 T02830217 $
14:53
V
28 °C 10 mi - 110° 110° 12 kt METAR KEYW 191853Z 11012KT 10SM CLR 28/21 A3004 RMK AO2 SLP178 T02830211 $
13:53
V
28 °C 10 mi - 110° 110° 13 kt METAR KEYW 191753Z 11013KT 10SM CLR 28/22 A3006 RMK AO2 SLP183 T02830217 10283 20244 58008 $
12:53
V
28 °C 10 mi - 110° 110° 12 kt METAR KEYW 191653Z 11012KT 10SM CLR 28/22 A3007 RMK AO2 SLP187 T02830217 $
11:53
V
28 °C 10 mi - 100° 100° 11 - 26 kt METAR KEYW 191553Z 10011G26KT 10SM CLR 28/22 A3008 RMK AO2 PK WND 12026/1546 SLP193 T02780222 $
10:53
V
28 °C 10 mi - 090° 090° 11 kt METAR KEYW 191453Z 09011KT 10SM CLR 28/22 A3008 RMK AO2 SLP191 T02780222 51010 $
09:53
V
27 °C 10 mi - 080° 080° 7 kt METAR KEYW 191353Z 08007KT 10SM FEW020 27/22 A3007 RMK AO2 SLP190 T02720217 $
09:20
V
27 °C 10 mi - 100° 100° 10 kt METAR KEYW 191320Z 10010KT 10SM FEW020 27/22 A3007 RMK AO2 T02670217 $
09:13
M
27 °C 10 mi 2,900 ft 080° 080° 8 kt METAR KEYW 191313Z 08008KT 10SM FEW020 BKN029 27/22 A3006 RMK AO2 T02670222 $
08:53
V
26 °C 10 mi - 070° 070° 6 kt METAR KEYW 191253Z 07006KT 10SM FEW026 26/22 A3006 RMK AO2 SLP186 T02610222 $
07:53
V
24 °C 10 mi - 060° 060° 5 kt METAR KEYW 191153Z 06005KT 10SM FEW019 24/22 A3005 RMK AO2 SLP182 T02440222 10244 20239 51014 $
07:30
V
24 °C 10 mi - 060° 060° 5 kt METAR KEYW 191130Z 06005KT 10SM FEW022 SCT027 24/22 A3005 RMK AO2 T02440217 $
07:22
M
24 °C 10 mi 2,700 ft 060° 060° 4 kt METAR KEYW 191122Z 06004KT 10SM FEW022 BKN027 24/22 A3004 RMK AO2 T02440217 $
06:53
V
24 °C 10 mi - 040° 040° 4 kt METAR KEYW 191053Z 04004KT 10SM FEW020 24/22 A3004 RMK AO2 SLP179 T02390217 $
05:53
V
24 °C 10 mi - 080° 080° 5 kt METAR KEYW 190953Z AUTO 08005KT 10SM CLR 24/21 A3003 RMK AO2 SLP174 T02390211 $
04:53
V
24 °C 10 mi - 080° 080° 7 kt METAR KEYW 190853Z AUTO 08007KT 10SM SCT018 24/21 A3001 RMK AO2 SLP167 T02440211 56008 $
03:53
V
24 °C 10 mi - 090° 090° 9 kt METAR KEYW 190753Z AUTO 09009KT 10SM FEW017 24/21 A3001 RMK AO2 SLP167 T02440211 $
02:53
V
24 °C 10 mi - 090° 090° 9 kt METAR KEYW 190653Z AUTO 09009KT 10SM FEW016 24/21 A3001 RMK AO2 SLP169 T02390211 $
01:53
V
24 °C 10 mi - 090° 090° 9 kt METAR KEYW 190553Z AUTO 09009KT 10SM CLR 24/21 A3003 RMK AO2 SLP175 T02440211 10256 20244 58012 $
Report a change